Archival Weather

Snohomish County (Paine Fld)

Everett, Washington (KPAE)

Report from: Saturday, October 28, 2023 10:53 AM PDT
Current time: Saturday, June 22, 2024 3:27 AM PDT

Current weather – Weather history – Daily summaries
Weather forecast

Temperature6.1°C (43.0°F)
Wind chill5.1°C (41.3°F)
Dew point-3.9°C (25.0°F)
Winds 3 kts (1.5 m/s, 3.5 mph) Vrb
Winds variableWinds variable
Visibility10 mi. (16.1 km)
Clouds Sky clear
Altimeter30.54 in.Hg (1034 mB)
Relative humidity49 %
Density altitude-1,727 ft. (-526 m)
Sea-level pressure103.5 kPa (1035 mB, 30.56 in.Hg)
Max temp last 6 hours6.7°C (44.1°F)
Min temp last 6 hours0.0°C (32.0°F)
Remarks Automated weather observing station with precipitation discriminator
Pressure rising more quickly
Flight conditions Visual Meteorological Conditions
Raw dataKPAE 281753Z VRB03KT 10SM CLR 06/M04 A3054 RMK AO2 SLP348 T00611039 10067 20000 53010
An error has occurred. This application may no longer respond until reloaded. Reload 🗙